sensor_id;sensor_type;location;lat;lon;timestamp;temperature;humidity
20744;DHT22;56303;52.160;-0.428;2022-11-24T00:01:09;8.30;99.90
20744;DHT22;56303;52.160;-0.428;2022-11-24T00:03:36;8.20;99.90
20744;DHT22;56303;52.160;-0.428;2022-11-24T00:06:09;8.20;99.90
20744;DHT22;56303;52.160;-0.428;2022-11-24T00:08:37;8.20;99.90
20744;DHT22;56303;52.160;-0.428;2022-11-24T00:11:07;8.20;99.90
20744;DHT22;56303;52.160;-0.428;2022-11-24T00:13:34;8.00;99.90
20744;DHT22;56303;52.160;-0.428;2022-11-24T00:16:16;8.30;99.90
20744;DHT22;56303;52.160;-0.428;2022-11-24T00:18:46;8.40;99.90
20744;DHT22;56303;52.160;-0.428;2022-11-24T00:21:14;8.50;99.90
20744;DHT22;56303;52.160;-0.428;2022-11-24T00:23:42;8.30;99.90
20744;DHT22;56303;52.160;-0.428;2022-11-24T00:28:44;8.30;99.90
20744;DHT22;56303;52.160;-0.428;2022-11-24T00:31:21;8.40;99.90
20744;DHT22;56303;52.160;-0.428;2022-11-24T00:33:50;8.40;99.90
20744;DHT22;56303;52.160;-0.428;2022-11-24T00:36:21;8.50;99.90
20744;DHT22;56303;52.160;-0.428;2022-11-24T00:38:53;8.40;99.90
20744;DHT22;56303;52.160;-0.428;2022-11-24T00:41:20;8.30;99.90
20744;DHT22;56303;52.160;-0.428;2022-11-24T00:43:47;8.30;99.90
20744;DHT22;56303;52.160;-0.428;2022-11-24T00:46:14;8.60;99.90
20744;DHT22;56303;52.160;-0.428;2022-11-24T00:48:41;8.00;99.90
20744;DHT22;56303;52.160;-0.428;2022-11-24T00:51:10;8.40;99.90
20744;DHT22;56303;52.160;-0.428;2022-11-24T00:53:37;8.20;99.90
20744;DHT22;56303;52.160;-0.428;2022-11-24T00:56:04;8.00;99.90
20744;DHT22;56303;52.160;-0.428;2022-11-24T00:58:32;8.10;99.90
20744;DHT22;56303;52.160;-0.428;2022-11-24T01:01:20;8.00;99.90
20744;DHT22;56303;52.160;-0.428;2022-11-24T01:03:47;7.80;99.90
20744;DHT22;56303;52.160;-0.428;2022-11-24T01:06:23;7.80;99.90
20744;DHT22;56303;52.160;-0.428;2022-11-24T01:08:50;7.70;99.90
20744;DHT22;56303;52.160;-0.428;2022-11-24T01:11:29;7.80;99.90
20744;DHT22;56303;52.160;-0.428;2022-11-24T01:14:17;7.60;99.90
20744;DHT22;56303;52.160;-0.428;2022-11-24T01:16:44;7.60;99.90
20744;DHT22;56303;52.160;-0.428;2022-11-24T01:19:10;7.60;99.90
20744;DHT22;56303;52.160;-0.428;2022-11-24T01:21:38;7.70;99.90
20744;DHT22;56303;52.160;-0.428;2022-11-24T01:24:05;7.70;99.90
20744;DHT22;56303;52.160;-0.428;2022-11-24T01:26:32;7.60;99.90
20744;DHT22;56303;52.160;-0.428;2022-11-24T01:28:59;7.50;99.90
20744;DHT22;56303;52.160;-0.428;2022-11-24T01:31:26;7.40;99.90
20744;DHT22;56303;52.160;-0.428;2022-11-24T01:33:53;7.60;99.90
20744;DHT22;56303;52.160;-0.428;2022-11-24T01:36:20;7.60;99.90
20744;DHT22;56303;52.160;-0.428;2022-11-24T01:38:47;7.70;99.90
20744;DHT22;56303;52.160;-0.428;2022-11-24T01:41:23;7.50;99.90
20744;DHT22;56303;52.160;-0.428;2022-11-24T01:43:51;7.30;99.90
20744;DHT22;56303;52.160;-0.428;2022-11-24T01:46:20;7.40;99.90
20744;DHT22;56303;52.160;-0.428;2022-11-24T01:51:32;7.60;99.90
20744;DHT22;56303;52.160;-0.428;2022-11-24T01:54:23;7.60;99.90
20744;DHT22;56303;52.160;-0.428;2022-11-24T01:56:53;7.60;99.90
20744;DHT22;56303;52.160;-0.428;2022-11-24T01:59:21;7.60;99.90
20744;DHT22;56303;52.160;-0.428;2022-11-24T02:01:50;7.80;99.90
20744;DHT22;56303;52.160;-0.428;2022-11-24T02:04:22;7.70;99.90
20744;DHT22;56303;52.160;-0.428;2022-11-24T02:06:50;7.60;99.90
20744;DHT22;56303;52.160;-0.428;2022-11-24T02:09:22;7.50;99.90
20744;DHT22;56303;52.160;-0.428;2022-11-24T02:11:50;7.50;99.90
20744;DHT22;56303;52.160;-0.428;2022-11-24T02:14:17;7.60;99.90
20744;DHT22;56303;52.160;-0.428;2022-11-24T02:16:48;7.50;99.90
20744;DHT22;56303;52.160;-0.428;2022-11-24T02:22:28;7.50;99.90
20744;DHT22;56303;52.160;-0.428;2022-11-24T02:27:35;7.60;99.90
20744;DHT22;56303;52.160;-0.428;2022-11-24T02:30:03;7.50;99.90
20744;DHT22;56303;52.160;-0.428;2022-11-24T02:32:31;7.30;99.90
20744;DHT22;56303;52.160;-0.428;2022-11-24T02:35:04;7.50;99.90
20744;DHT22;56303;52.160;-0.428;2022-11-24T02:37:31;7.50;99.90
20744;DHT22;56303;52.160;-0.428;2022-11-24T02:39:58;7.50;99.90
20744;DHT22;56303;52.160;-0.428;2022-11-24T02:42:27;7.40;99.90
20744;DHT22;56303;52.160;-0.428;2022-11-24T02:44:58;7.50;99.90
20744;DHT22;56303;52.160;-0.428;2022-11-24T02:47:26;7.60;99.90
20744;DHT22;56303;52.160;-0.428;2022-11-24T02:49:53;7.30;99.90
20744;DHT22;56303;52.160;-0.428;2022-11-24T02:52:20;7.30;99.90
20744;DHT22;56303;52.160;-0.428;2022-11-24T02:54:46;7.40;99.90
20744;DHT22;56303;52.160;-0.428;2022-11-24T02:57:14;7.30;99.90
20744;DHT22;56303;52.160;-0.428;2022-11-24T02:59:41;7.40;99.90
20744;DHT22;56303;52.160;-0.428;2022-11-24T03:02:07;7.30;99.90
20744;DHT22;56303;52.160;-0.428;2022-11-24T03:04:36;7.40;99.90
20744;DHT22;56303;52.160;-0.428;2022-11-24T03:07:02;7.50;99.90
20744;DHT22;56303;52.160;-0.428;2022-11-24T03:09:30;7.40;99.90
20744;DHT22;56303;52.160;-0.428;2022-11-24T03:11:57;7.40;99.90
20744;DHT22;56303;52.160;-0.428;2022-11-24T03:14:24;7.40;99.90
20744;DHT22;56303;52.160;-0.428;2022-11-24T03:16:50;7.50;99.90
20744;DHT22;56303;52.160;-0.428;2022-11-24T03:19:17;7.50;99.90
20744;DHT22;56303;52.160;-0.428;2022-11-24T03:21:44;7.50;99.90
20744;DHT22;56303;52.160;-0.428;2022-11-24T03:24:11;7.60;99.90
20744;DHT22;56303;52.160;-0.428;2022-11-24T03:26:37;7.60;99.90
20744;DHT22;56303;52.160;-0.428;2022-11-24T03:29:04;7.40;99.90
20744;DHT22;56303;52.160;-0.428;2022-11-24T03:31:31;7.90;99.90
20744;DHT22;56303;52.160;-0.428;2022-11-24T03:33:58;7.40;99.90
20744;DHT22;56303;52.160;-0.428;2022-11-24T03:36:24;7.60;99.90
20744;DHT22;56303;52.160;-0.428;2022-11-24T03:38:51;7.60;99.90
20744;DHT22;56303;52.160;-0.428;2022-11-24T03:41:18;7.60;99.90
20744;DHT22;56303;52.160;-0.428;2022-11-24T03:43:45;7.70;99.90
20744;DHT22;56303;52.160;-0.428;2022-11-24T03:46:12;7.70;99.90
20744;DHT22;56303;52.160;-0.428;2022-11-24T03:48:39;7.60;99.90
20744;DHT22;56303;52.160;-0.428;2022-11-24T03:51:06;7.80;99.90
20744;DHT22;56303;52.160;-0.428;2022-11-24T03:53:33;7.80;99.90
20744;DHT22;56303;52.160;-0.428;2022-11-24T03:56:00;7.80;99.90
20744;DHT22;56303;52.160;-0.428;2022-11-24T03:58:27;7.90;99.90
20744;DHT22;56303;52.160;-0.428;2022-11-24T04:00:55;8.00;99.90
20744;DHT22;56303;52.160;-0.428;2022-11-24T04:03:23;7.70;99.90
20744;DHT22;56303;52.160;-0.428;2022-11-24T04:05:50;7.80;99.90
20744;DHT22;56303;52.160;-0.428;2022-11-24T04:08:17;7.70;99.90
20744;DHT22;56303;52.160;-0.428;2022-11-24T04:10:48;7.60;99.90
20744;DHT22;56303;52.160;-0.428;2022-11-24T04:13:18;7.60;99.90
20744;DHT22;56303;52.160;-0.428;2022-11-24T04:15:45;7.60;99.90
20744;DHT22;56303;52.160;-0.428;2022-11-24T04:18:12;7.70;99.90
20744;DHT22;56303;52.160;-0.428;2022-11-24T04:20:40;7.70;99.90
20744;DHT22;56303;52.160;-0.428;2022-11-24T04:23:08;7.90;99.90
20744;DHT22;56303;52.160;-0.428;2022-11-24T04:25:35;7.70;99.90
20744;DHT22;56303;52.160;-0.428;2022-11-24T04:28:02;7.70;99.90
20744;DHT22;56303;52.160;-0.428;2022-11-24T04:30:29;7.70;99.90
20744;DHT22;56303;52.160;-0.428;2022-11-24T04:32:56;7.70;99.90
20744;DHT22;56303;52.160;-0.428;2022-11-24T04:35:23;7.60;99.90
20744;DHT22;56303;52.160;-0.428;2022-11-24T04:37:50;7.60;99.90
20744;DHT22;56303;52.160;-0.428;2022-11-24T04:40:17;7.80;99.90
20744;DHT22;56303;52.160;-0.428;2022-11-24T04:42:51;7.70;99.90
20744;DHT22;56303;52.160;-0.428;2022-11-24T04:45:19;7.90;99.90
20744;DHT22;56303;52.160;-0.428;2022-11-24T04:47:46;8.00;99.90
20744;DHT22;56303;52.160;-0.428;2022-11-24T04:50:12;8.00;99.90
20744;DHT22;56303;52.160;-0.428;2022-11-24T04:52:39;7.90;99.90
20744;DHT22;56303;52.160;-0.428;2022-11-24T04:55:06;7.80;99.90
20744;DHT22;56303;52.160;-0.428;2022-11-24T04:57:33;7.80;99.90
20744;DHT22;56303;52.160;-0.428;2022-11-24T05:00:00;7.90;99.90
20744;DHT22;56303;52.160;-0.428;2022-11-24T05:02:27;7.80;99.90
20744;DHT22;56303;52.160;-0.428;2022-11-24T05:04:53;7.80;99.90
20744;DHT22;56303;52.160;-0.428;2022-11-24T05:07:20;8.00;99.90
20744;DHT22;56303;52.160;-0.428;2022-11-24T05:09:47;8.00;99.90
20744;DHT22;56303;52.160;-0.428;2022-11-24T05:12:33;8.00;99.90
20744;DHT22;56303;52.160;-0.428;2022-11-24T05:15:01;7.90;99.90
20744;DHT22;56303;52.160;-0.428;2022-11-24T05:17:30;8.00;99.90
20744;DHT22;56303;52.160;-0.428;2022-11-24T05:19:58;8.00;99.90
20744;DHT22;56303;52.160;-0.428;2022-11-24T05:22:26;8.00;99.90
20744;DHT22;56303;52.160;-0.428;2022-11-24T05:24:53;7.90;99.90
20744;DHT22;56303;52.160;-0.428;2022-11-24T05:27:20;8.00;99.90
20744;DHT22;56303;52.160;-0.428;2022-11-24T05:29:47;8.00;99.90
20744;DHT22;56303;52.160;-0.428;2022-11-24T05:32:14;7.90;99.90
20744;DHT22;56303;52.160;-0.428;2022-11-24T05:34:41;8.00;99.90
20744;DHT22;56303;52.160;-0.428;2022-11-24T05:37:07;7.90;99.90
20744;DHT22;56303;52.160;-0.428;2022-11-24T05:39:35;7.90;99.90
20744;DHT22;56303;52.160;-0.428;2022-11-24T05:42:03;7.90;99.90
20744;DHT22;56303;52.160;-0.428;2022-11-24T05:44:51;7.90;99.90
20744;DHT22;56303;52.160;-0.428;2022-11-24T05:47:18;7.80;99.90
20744;DHT22;56303;52.160;-0.428;2022-11-24T05:49:45;7.90;99.90
20744;DHT22;56303;52.160;-0.428;2022-11-24T05:52:12;7.80;99.90
20744;DHT22;56303;52.160;-0.428;2022-11-24T05:54:39;7.90;99.90
20744;DHT22;56303;52.160;-0.428;2022-11-24T05:57:06;7.80;99.90
20744;DHT22;56303;52.160;-0.428;2022-11-24T05:59:32;7.90;99.90
20744;DHT22;56303;52.160;-0.428;2022-11-24T06:01:59;8.00;99.90
20744;DHT22;56303;52.160;-0.428;2022-11-24T06:04:26;8.00;99.90
20744;DHT22;56303;52.160;-0.428;2022-11-24T06:06:53;8.00;99.90
20744;DHT22;56303;52.160;-0.428;2022-11-24T06:09:20;8.00;99.90
20744;DHT22;56303;52.160;-0.428;2022-11-24T06:11:47;8.00;99.90
20744;DHT22;56303;52.160;-0.428;2022-11-24T06:14:14;8.00;99.90
20744;DHT22;56303;52.160;-0.428;2022-11-24T06:16:41;8.10;99.90
20744;DHT22;56303;52.160;-0.428;2022-11-24T06:19:10;8.30;99.90
20744;DHT22;56303;52.160;-0.428;2022-11-24T06:21:37;8.10;99.90
20744;DHT22;56303;52.160;-0.428;2022-11-24T06:24:04;8.10;99.90
20744;DHT22;56303;52.160;-0.428;2022-11-24T06:26:31;8.10;99.90
20744;DHT22;56303;52.160;-0.428;2022-11-24T06:28:58;8.00;99.90
20744;DHT22;56303;52.160;-0.428;2022-11-24T06:31:25;7.80;99.90
20744;DHT22;56303;52.160;-0.428;2022-11-24T06:33:52;8.00;99.90
20744;DHT22;56303;52.160;-0.428;2022-11-24T06:36:18;8.00;99.90
20744;DHT22;56303;52.160;-0.428;2022-11-24T06:38:46;8.10;99.90
20744;DHT22;56303;52.160;-0.428;2022-11-24T06:41:14;8.20;99.90
20744;DHT22;56303;52.160;-0.428;2022-11-24T06:43:41;8.40;99.90
20744;DHT22;56303;52.160;-0.428;2022-11-24T06:46:08;8.30;99.90
20744;DHT22;56303;52.160;-0.428;2022-11-24T06:48:35;8.10;99.90
20744;DHT22;56303;52.160;-0.428;2022-11-24T06:51:07;8.20;99.90
20744;DHT22;56303;52.160;-0.428;2022-11-24T06:53:36;8.20;99.90
20744;DHT22;56303;52.160;-0.428;2022-11-24T06:56:08;8.20;99.90
20744;DHT22;56303;52.160;-0.428;2022-11-24T06:58:43;8.10;99.90
20744;DHT22;56303;52.160;-0.428;2022-11-24T07:01:18;8.10;99.90
20744;DHT22;56303;52.160;-0.428;2022-11-24T07:03:46;8.10;99.90
20744;DHT22;56303;52.160;-0.428;2022-11-24T07:06:14;7.90;99.90
20744;DHT22;56303;52.160;-0.428;2022-11-24T07:08:41;7.90;99.90
20744;DHT22;56303;52.160;-0.428;2022-11-24T07:11:15;7.80;99.90
20744;DHT22;56303;52.160;-0.428;2022-11-24T07:13:42;7.70;99.90
20744;DHT22;56303;52.160;-0.428;2022-11-24T07:16:24;7.70;99.90
20744;DHT22;56303;52.160;-0.428;2022-11-24T07:18:52;7.80;99.90
20744;DHT22;56303;52.160;-0.428;2022-11-24T07:21:21;7.90;99.90
20744;DHT22;56303;52.160;-0.428;2022-11-24T07:23:52;7.80;99.90
20744;DHT22;56303;52.160;-0.428;2022-11-24T07:26:20;7.70;99.90
20744;DHT22;56303;52.160;-0.428;2022-11-24T07:28:47;7.80;99.90
20744;DHT22;56303;52.160;-0.428;2022-11-24T07:31:20;7.70;99.90
20744;DHT22;56303;52.160;-0.428;2022-11-24T07:33:52;7.80;99.90
20744;DHT22;56303;52.160;-0.428;2022-11-24T07:36:19;7.90;99.90
20744;DHT22;56303;52.160;-0.428;2022-11-24T07:38:46;8.00;99.90
20744;DHT22;56303;52.160;-0.428;2022-11-24T07:41:15;8.10;99.90
20744;DHT22;56303;52.160;-0.428;2022-11-24T07:43:42;8.10;99.90
20744;DHT22;56303;52.160;-0.428;2022-11-24T07:46:11;8.10;99.90
20744;DHT22;56303;52.160;-0.428;2022-11-24T07:48:38;8.00;99.90
20744;DHT22;56303;52.160;-0.428;2022-11-24T07:51:06;8.00;99.90
20744;DHT22;56303;52.160;-0.428;2022-11-24T07:53:33;7.90;99.90
20744;DHT22;56303;52.160;-0.428;2022-11-24T07:56:02;7.90;99.90
20744;DHT22;56303;52.160;-0.428;2022-11-24T07:58:32;7.80;99.90
20744;DHT22;56303;52.160;-0.428;2022-11-24T08:00:59;7.90;99.90
20744;DHT22;56303;52.160;-0.428;2022-11-24T08:03:34;7.90;99.90
20744;DHT22;56303;52.160;-0.428;2022-11-24T08:06:01;8.20;99.90
20744;DHT22;56303;52.160;-0.428;2022-11-24T08:08:48;8.00;99.90
20744;DHT22;56303;52.160;-0.428;2022-11-24T08:11:16;8.00;99.90
20744;DHT22;56303;52.160;-0.428;2022-11-24T08:13:43;8.10;99.90
20744;DHT22;56303;52.160;-0.428;2022-11-24T08:16:15;8.20;99.90
20744;DHT22;56303;52.160;-0.428;2022-11-24T08:18:43;8.10;99.90
20744;DHT22;56303;52.160;-0.428;2022-11-24T08:21:12;8.30;99.90
20744;DHT22;56303;52.160;-0.428;2022-11-24T08:23:39;8.40;99.90
20744;DHT22;56303;52.160;-0.428;2022-11-24T08:26:09;8.40;99.90
20744;DHT22;56303;52.160;-0.428;2022-11-24T08:28:36;8.30;99.90
20744;DHT22;56303;52.160;-0.428;2022-11-24T08:31:09;8.60;99.90
20744;DHT22;56303;52.160;-0.428;2022-11-24T08:33:37;8.50;99.90
20744;DHT22;56303;52.160;-0.428;2022-11-24T08:36:06;8.50;99.90
20744;DHT22;56303;52.160;-0.428;2022-11-24T08:38:34;8.70;99.90
20744;DHT22;56303;52.160;-0.428;2022-11-24T08:41:02;8.60;99.90
20744;DHT22;56303;52.160;-0.428;2022-11-24T08:43:30;8.70;99.90
20744;DHT22;56303;52.160;-0.428;2022-11-24T08:46:01;8.60;99.90
20744;DHT22;56303;52.160;-0.428;2022-11-24T08:48:29;8.60;99.90
20744;DHT22;56303;52.160;-0.428;2022-11-24T08:50:57;8.80;99.90
20744;DHT22;56303;52.160;-0.428;2022-11-24T08:53:24;8.90;99.90
20744;DHT22;56303;52.160;-0.428;2022-11-24T08:55:51;9.10;99.90
20744;DHT22;56303;52.160;-0.428;2022-11-24T08:58:18;9.10;99.90
20744;DHT22;56303;52.160;-0.428;2022-11-24T09:00:45;9.20;99.90
20744;DHT22;56303;52.160;-0.428;2022-11-24T09:03:11;9.10;99.90
20744;DHT22;56303;52.160;-0.428;2022-11-24T09:05:38;9.20;99.90
20744;DHT22;56303;52.160;-0.428;2022-11-24T09:08:20;9.10;99.90
20744;DHT22;56303;52.160;-0.428;2022-11-24T09:10:47;9.10;99.90
20744;DHT22;56303;52.160;-0.428;2022-11-24T09:13:14;9.20;99.90
20744;DHT22;56303;52.160;-0.428;2022-11-24T09:15:41;9.50;99.90
20744;DHT22;56303;52.160;-0.428;2022-11-24T09:18:07;9.50;99.90
20744;DHT22;56303;52.160;-0.428;2022-11-24T09:20:34;9.40;99.90
20744;DHT22;56303;52.160;-0.428;2022-11-24T09:23:01;9.40;99.90
20744;DHT22;56303;52.160;-0.428;2022-11-24T09:25:28;9.20;99.90
20744;DHT22;56303;52.160;-0.428;2022-11-24T09:27:55;9.30;99.90
20744;DHT22;56303;52.160;-0.428;2022-11-24T09:30:22;9.10;99.90
20744;DHT22;56303;52.160;-0.428;2022-11-24T09:32:49;9.10;99.90
20744;DHT22;56303;52.160;-0.428;2022-11-24T09:35:16;9.20;99.90
20744;DHT22;56303;52.160;-0.428;2022-11-24T09:37:43;9.10;99.90
20744;DHT22;56303;52.160;-0.428;2022-11-24T09:40:12;9.10;99.90
20744;DHT22;56303;52.160;-0.428;2022-11-24T09:48:38;9.60;99.90
20744;DHT22;56303;52.160;-0.428;2022-11-24T09:51:10;9.90;99.90
20744;DHT22;56303;52.160;-0.428;2022-11-24T09:53:42;9.80;99.90
20744;DHT22;56303;52.160;-0.428;2022-11-24T09:56:20;9.90;99.90
20744;DHT22;56303;52.160;-0.428;2022-11-24T10:01:39;9.90;99.90
20744;DHT22;56303;52.160;-0.428;2022-11-24T10:04:27;10.00;99.90
20744;DHT22;56303;52.160;-0.428;2022-11-24T10:15:40;10.00;99.90
20744;DHT22;56303;52.160;-0.428;2022-11-24T10:18:39;10.10;99.90
20744;DHT22;56303;52.160;-0.428;2022-11-24T10:26:35;10.40;99.90
20744;DHT22;56303;52.160;-0.428;2022-11-24T10:29:19;10.40;99.90
20744;DHT22;56303;52.160;-0.428;2022-11-24T10:31:51;10.70;99.90
20744;DHT22;56303;52.160;-0.428;2022-11-24T10:37:11;11.20;99.90
20744;DHT22;56303;52.160;-0.428;2022-11-24T10:40:06;11.20;99.90
20744;DHT22;56303;52.160;-0.428;2022-11-24T10:42:55;11.10;99.90
20744;DHT22;56303;52.160;-0.428;2022-11-24T10:45:22;11.10;99.90
20744;DHT22;56303;52.160;-0.428;2022-11-24T10:47:49;11.30;99.90
20744;DHT22;56303;52.160;-0.428;2022-11-24T10:58:23;11.70;99.90
20744;DHT22;56303;52.160;-0.428;2022-11-24T11:00:53;11.90;99.90
20744;DHT22;56303;52.160;-0.428;2022-11-24T11:03:30;12.10;99.90
20744;DHT22;56303;52.160;-0.428;2022-11-24T11:08:46;12.20;99.90
20744;DHT22;56303;52.160;-0.428;2022-11-24T11:11:15;12.20;99.90
20744;DHT22;56303;52.160;-0.428;2022-11-24T11:14:01;12.20;99.90
20744;DHT22;56303;52.160;-0.428;2022-11-24T11:16:37;12.30;99.90
20744;DHT22;56303;52.160;-0.428;2022-11-24T11:19:42;12.50;99.90
20744;DHT22;56303;52.160;-0.428;2022-11-24T11:22:31;12.80;99.90
20744;DHT22;56303;52.160;-0.428;2022-11-24T11:25:36;13.00;99.90
20744;DHT22;56303;52.160;-0.428;2022-11-24T11:28:30;12.80;99.90
20744;DHT22;56303;52.160;-0.428;2022-11-24T11:34:16;12.90;99.90
20744;DHT22;56303;52.160;-0.428;2022-11-24T11:37:02;13.40;99.90
20744;DHT22;56303;52.160;-0.428;2022-11-24T11:39:31;13.80;99.90
20744;DHT22;56303;52.160;-0.428;2022-11-24T11:42:12;13.30;99.90
20744;DHT22;56303;52.160;-0.428;2022-11-24T11:45:30;13.10;99.90
20744;DHT22;56303;52.160;-0.428;2022-11-24T11:53:39;13.30;99.90
20744;DHT22;56303;52.160;-0.428;2022-11-24T11:56:23;13.60;99.90
20744;DHT22;56303;52.160;-0.428;2022-11-24T12:12:52;13.20;99.90
20744;DHT22;56303;52.160;-0.428;2022-11-24T12:24:03;14.30;99.90
20744;DHT22;56303;52.160;-0.428;2022-11-24T12:39:44;13.30;99.90
20744;DHT22;56303;52.160;-0.428;2022-11-24T12:45:13;13.30;99.90
20744;DHT22;56303;52.160;-0.428;2022-11-24T12:50:23;13.10;99.90
20744;DHT22;56303;52.160;-0.428;2022-11-24T12:53:04;13.20;99.90
20744;DHT22;56303;52.160;-0.428;2022-11-24T12:55:34;13.10;99.90
20744;DHT22;56303;52.160;-0.428;2022-11-24T13:06:06;13.30;99.90
20744;DHT22;56303;52.160;-0.428;2022-11-24T13:08:35;13.20;99.90
20744;DHT22;56303;52.160;-0.428;2022-11-24T13:14:13;13.30;99.90
20744;DHT22;56303;52.160;-0.428;2022-11-24T13:19:38;13.20;99.90
20744;DHT22;56303;52.160;-0.428;2022-11-24T13:24:36;13.60;99.90
20744;DHT22;56303;52.160;-0.428;2022-11-24T13:29:50;13.40;99.90
20744;DHT22;56303;52.160;-0.428;2022-11-24T13:40:34;13.20;99.90
20744;DHT22;56303;52.160;-0.428;2022-11-24T13:53:41;13.10;99.90
20744;DHT22;56303;52.160;-0.428;2022-11-24T14:01:29;13.30;99.90
20744;DHT22;56303;52.160;-0.428;2022-11-24T14:04:16;13.30;99.90
20744;DHT22;56303;52.160;-0.428;2022-11-24T14:07:12;13.20;99.90
20744;DHT22;56303;52.160;-0.428;2022-11-24T14:09:45;13.40;99.90
20744;DHT22;56303;52.160;-0.428;2022-11-24T14:12:21;13.40;99.90
20744;DHT22;56303;52.160;-0.428;2022-11-24T14:14:50;13.20;99.90
20744;DHT22;56303;52.160;-0.428;2022-11-24T14:17:19;13.50;99.90
20744;DHT22;56303;52.160;-0.428;2022-11-24T14:19:48;13.60;99.90
20744;DHT22;56303;52.160;-0.428;2022-11-24T14:25:00;13.40;99.90
20744;DHT22;56303;52.160;-0.428;2022-11-24T14:27:33;13.50;99.90
20744;DHT22;56303;52.160;-0.428;2022-11-24T14:30:18;13.50;99.90
20744;DHT22;56303;52.160;-0.428;2022-11-24T14:32:57;13.60;99.90
20744;DHT22;56303;52.160;-0.428;2022-11-24T14:35:28;13.50;99.90
20744;DHT22;56303;52.160;-0.428;2022-11-24T14:37:55;13.40;99.90
20744;DHT22;56303;52.160;-0.428;2022-11-24T14:46:09;13.40;99.90
20744;DHT22;56303;52.160;-0.428;2022-11-24T14:48:50;13.30;99.90
20744;DHT22;56303;52.160;-0.428;2022-11-24T14:51:35;13.20;99.90
20744;DHT22;56303;52.160;-0.428;2022-11-24T14:54:14;13.30;99.90
20744;DHT22;56303;52.160;-0.428;2022-11-24T14:57:02;13.30;99.90
20744;DHT22;56303;52.160;-0.428;2022-11-24T14:59:32;13.30;99.90
20744;DHT22;56303;52.160;-0.428;2022-11-24T15:02:00;13.20;99.90
20744;DHT22;56303;52.160;-0.428;2022-11-24T15:04:29;13.20;99.90
20744;DHT22;56303;52.160;-0.428;2022-11-24T15:07:26;13.10;99.90
20744;DHT22;56303;52.160;-0.428;2022-11-24T15:09:56;13.00;99.90
20744;DHT22;56303;52.160;-0.428;2022-11-24T15:12:36;13.10;99.90
20744;DHT22;56303;52.160;-0.428;2022-11-24T15:15:15;13.30;99.90
20744;DHT22;56303;52.160;-0.428;2022-11-24T15:17:56;13.00;99.90
20744;DHT22;56303;52.160;-0.428;2022-11-24T15:20:33;12.70;99.90
20744;DHT22;56303;52.160;-0.428;2022-11-24T15:23:23;12.60;99.90
20744;DHT22;56303;52.160;-0.428;2022-11-24T15:25:52;12.50;99.90
20744;DHT22;56303;52.160;-0.428;2022-11-24T15:28:21;12.50;99.90
20744;DHT22;56303;52.160;-0.428;2022-11-24T15:30:59;12.40;99.90
20744;DHT22;56303;52.160;-0.428;2022-11-24T15:33:26;12.50;99.90
20744;DHT22;56303;52.160;-0.428;2022-11-24T15:35:53;12.60;99.90
20744;DHT22;56303;52.160;-0.428;2022-11-24T15:38:21;12.70;99.90
20744;DHT22;56303;52.160;-0.428;2022-11-24T15:40:50;12.60;99.90
20744;DHT22;56303;52.160;-0.428;2022-11-24T15:45:57;12.60;99.90
20744;DHT22;56303;52.160;-0.428;2022-11-24T15:48:25;12.20;99.90
20744;DHT22;56303;52.160;-0.428;2022-11-24T15:50:52;12.20;99.90
20744;DHT22;56303;52.160;-0.428;2022-11-24T15:55:48;12.20;99.90
20744;DHT22;56303;52.160;-0.428;2022-11-24T15:58:15;12.00;99.90
20744;DHT22;56303;52.160;-0.428;2022-11-24T16:00:43;12.00;99.90
20744;DHT22;56303;52.160;-0.428;2022-11-24T16:03:10;12.10;99.90
20744;DHT22;56303;52.160;-0.428;2022-11-24T16:05:57;12.10;99.90
20744;DHT22;56303;52.160;-0.428;2022-11-24T16:08:24;12.20;99.90
20744;DHT22;56303;52.160;-0.428;2022-11-24T16:10:50;12.10;99.90
20744;DHT22;56303;52.160;-0.428;2022-11-24T16:13:17;12.10;99.90
20744;DHT22;56303;52.160;-0.428;2022-11-24T16:15:45;11.90;99.90
20744;DHT22;56303;52.160;-0.428;2022-11-24T16:18:12;12.00;99.90
20744;DHT22;56303;52.160;-0.428;2022-11-24T16:20:39;12.10;99.90
20744;DHT22;56303;52.160;-0.428;2022-11-24T16:23:06;12.10;99.90
20744;DHT22;56303;52.160;-0.428;2022-11-24T16:25:33;12.00;99.90
20744;DHT22;56303;52.160;-0.428;2022-11-24T16:27:59;12.00;99.90
20744;DHT22;56303;52.160;-0.428;2022-11-24T16:30:26;12.10;99.90
20744;DHT22;56303;52.160;-0.428;2022-11-24T16:32:54;12.10;99.90
20744;DHT22;56303;52.160;-0.428;2022-11-24T16:35:21;12.10;99.90
20744;DHT22;56303;52.160;-0.428;2022-11-24T16:37:48;12.10;99.90
20744;DHT22;56303;52.160;-0.428;2022-11-24T16:40:15;12.20;99.90
20744;DHT22;56303;52.160;-0.428;2022-11-24T16:42:41;12.10;99.90
20744;DHT22;56303;52.160;-0.428;2022-11-24T16:45:11;11.90;99.90
20744;DHT22;56303;52.160;-0.428;2022-11-24T16:47:39;12.00;99.90
20744;DHT22;56303;52.160;-0.428;2022-11-24T16:50:09;11.90;99.90
20744;DHT22;56303;52.160;-0.428;2022-11-24T16:52:37;11.80;99.90
20744;DHT22;56303;52.160;-0.428;2022-11-24T16:55:05;11.80;99.90
20744;DHT22;56303;52.160;-0.428;2022-11-24T16:57:32;11.80;99.90
20744;DHT22;56303;52.160;-0.428;2022-11-24T16:59:59;11.70;99.90
20744;DHT22;56303;52.160;-0.428;2022-11-24T17:02:26;11.80;99.90
20744;DHT22;56303;52.160;-0.428;2022-11-24T17:04:53;11.70;99.90
20744;DHT22;56303;52.160;-0.428;2022-11-24T17:07:20;11.60;99.90
20744;DHT22;56303;52.160;-0.428;2022-11-24T17:09:47;11.50;99.90
20744;DHT22;56303;52.160;-0.428;2022-11-24T17:12:15;11.50;99.90
20744;DHT22;56303;52.160;-0.428;2022-11-24T17:14:41;11.40;99.90
20744;DHT22;56303;52.160;-0.428;2022-11-24T17:17:18;11.30;99.90
20744;DHT22;56303;52.160;-0.428;2022-11-24T17:19:45;11.20;99.90
20744;DHT22;56303;52.160;-0.428;2022-11-24T17:22:11;11.20;99.90
20744;DHT22;56303;52.160;-0.428;2022-11-24T17:24:38;11.00;99.90
20744;DHT22;56303;52.160;-0.428;2022-11-24T17:27:05;11.00;99.90
20744;DHT22;56303;52.160;-0.428;2022-11-24T17:29:32;11.10;99.90
20744;DHT22;56303;52.160;-0.428;2022-11-24T17:31:59;11.00;99.90
20744;DHT22;56303;52.160;-0.428;2022-11-24T17:34:26;10.90;99.90
20744;DHT22;56303;52.160;-0.428;2022-11-24T17:36:53;10.90;99.90
20744;DHT22;56303;52.160;-0.428;2022-11-24T17:39:20;11.00;99.90
20744;DHT22;56303;52.160;-0.428;2022-11-24T17:41:50;11.00;99.90
20744;DHT22;56303;52.160;-0.428;2022-11-24T17:44:17;10.90;99.90
20744;DHT22;56303;52.160;-0.428;2022-11-24T17:46:44;11.00;99.90
20744;DHT22;56303;52.160;-0.428;2022-11-24T17:49:11;11.00;99.90
20744;DHT22;56303;52.160;-0.428;2022-11-24T17:51:38;11.00;99.90
20744;DHT22;56303;52.160;-0.428;2022-11-24T17:54:05;11.20;99.90
20744;DHT22;56303;52.160;-0.428;2022-11-24T17:56:52;11.10;99.90
20744;DHT22;56303;52.160;-0.428;2022-11-24T17:59:19;11.20;99.90
20744;DHT22;56303;52.160;-0.428;2022-11-24T18:01:46;11.20;99.90
20744;DHT22;56303;52.160;-0.428;2022-11-24T18:04:12;11.20;99.90
20744;DHT22;56303;52.160;-0.428;2022-11-24T18:06:39;10.90;99.90
20744;DHT22;56303;52.160;-0.428;2022-11-24T18:09:06;11.00;99.90
20744;DHT22;56303;52.160;-0.428;2022-11-24T18:11:33;11.10;99.90
20744;DHT22;56303;52.160;-0.428;2022-11-24T18:14:02;11.10;99.90
20744;DHT22;56303;52.160;-0.428;2022-11-24T18:16:33;11.10;99.90
20744;DHT22;56303;52.160;-0.428;2022-11-24T18:19:02;11.20;99.90